Terminal Aerodrome Forecast
Issued by NWS Bismarck, ND

Home | Current Version | Previous Version | Text Only | Print | Product List | Glossary Off
Versions: 1 2 3 4 5 6 7 8 9 10 11 12 13 14 15 16 17

000
FTUS43 KBIS 211722
TAFISN
TAF
KISN 211722Z 2118/2218 11012KT P6SM SCT080
     FM220600 12014G20KT P6SM SCT035 OVC110
     FM221200 14015G23KT P6SM BKN035 OVC060
     FM221700 15015G23KT P6SM BKN030 OVC040=

USA.gov is the U.S. government's official web portal to all federal, state and local government web resources and services.